Have a Safe July 4th! 

Flight Track Log - Related Links

Times and Time Zones

All times are in EST time to prevent confusion due to time zone crossing. See the UCA3598 flight status page for this flight to view local times or setup timezone preferences in your user account.

Time Position Orientation Groundspeed Altitude Reporting Facility
EST Latitude Longitude Course Direction KTS MPH feet Rate Location/Type
Wed 10:42:20 PM 38.9667 -77.5167 North 167 192 2,300  Level Potomac TRACON
Wed 10:43:26 PM 39.0167 -77.5500 333° Northwest 187 215 4,500 1,803 Climbing Potomac TRACON
Wed 10:45:13 PM 39.1011 -77.5842 343° North 187 215 7,500 1,714 Climbing Washington Center
Wed 10:46:14 PM 39.1556 -77.5803 North 187 215 9,300 1,835 Climbing Washington Center
Wed 10:47:00 PM 39.4364 -77.2475 North  Level Estimated
Wed 10:47:14 PM 39.2100 -77.5631 14° North 182 209 11,200  Level Washington Center
Wed 10:48:16 PM 39.2622 -77.5511 10° North 187 215 12,900 1,587 Climbing Washington Center
Wed 10:49:15 PM 39.3189 -77.5339 13° North 192 221 14,400 1,525 Climbing Washington Center
Wed 10:50:14 PM 39.3772 -77.5219 North 204 235 15,900 1,438 Climbing Washington Center
Wed 10:51:16 PM 39.4358 -77.5075 11° North 204 235 17,300 571 Climbing Washington Center
Wed 10:53:00 PM 39.5541 -77.4451 North  Level Estimated
Wed 10:55:40 PM 39.7336 -77.3933 North 269 310 19,000  Level New York Center
Wed 10:56:40 PM 39.8000 -77.3617 20° North 279 321 19,000  Level New York Center
Wed 10:57:40 PM 39.8794 -77.3206 22° Northeast 279 321 19,000  Level New York Center
Wed 10:58:40 PM 39.9458 -77.2886 20° North 279 321 19,000  Level New York Center
Wed 10:59:40 PM 40.0275 -77.2475 21° North 279 321 19,000  Level New York Center
Wed 11:00:00 PM 40.0316 -77.1907 North  Level Estimated
Wed 11:00:40 PM 40.0917 -77.2156 21° North 279 321 19,000  Level New York Center
Wed 11:01:40 PM 40.1731 -77.1769 20° North 279 321 19,000  Level New York Center
Wed 11:02:40 PM 40.2375 -77.1419 23° Northeast 279 321 19,000  Level New York Center
Wed 11:03:40 PM 40.3167 -77.1031 21° North 279 321 19,000  Level New York Center
Wed 11:04:40 PM 40.3833 -77.0681 22° Northeast 279 321 19,000  Level New York Center
Wed 11:05:41 PM 40.4647 -77.0264 21° North 279 321 19,000  Level New York Center
Wed 11:06:40 PM 40.5289 -76.9942 21° North 279 321 19,000  Level New York Center
Wed 11:07:40 PM 40.6125 -76.9525 21° North 279 321 19,000 -450 Level New York Center
Wed 11:08:40 PM 40.6811 -76.9147 23° Northeast 284 327 18,100 -700 Descending New York Center
Wed 11:09:40 PM 40.7647 -76.8703 22° Northeast 291 335 17,600 -700 Descending New York Center
Wed 11:10:40 PM 40.8353 -76.8353 21° North 296 341 16,700 -950 Descending New York Center
Wed 11:11:40 PM 40.9122 -76.7956 21° North 296 341 15,700 -1,000 Descending New York Center
Wed 11:12:40 PM 40.9892 -76.7583 20° North 296 341 14,700 -1,000 Descending New York Center
Wed 11:13:40 PM 41.0642 -76.7181 22° Northeast 296 341 13,700 -800 Descending New York Center
Wed 11:14:40 PM 41.1411 -76.6781 21° North 296 341 13,100 -300 Descending New York Center
Wed 11:15:40 PM 41.2183 -76.6350 23° Northeast 285 328 13,100  Level New York Center
Wed 11:16:40 PM 41.2886 -76.5997 21° North 279 321 13,100  Level New York Center
Wed 11:17:40 PM 41.3528 -76.5667 21° North 279 321 13,100  Level New York Center
Wed 11:18:40 PM 41.4319 -76.5236 22° Northeast 279 321 13,100  Level New York Center
Wed 11:19:40 PM 41.5025 -76.4853 22° Northeast 279 321 13,100  Level New York Center
Wed 11:20:40 PM 41.5731 -76.4497 21° North 279 321 13,100  Level New York Center
Wed 11:21:40 PM 41.6353 -76.4136 23° Northeast 279 321 13,100 -250 Level New York Center
Wed 11:22:40 PM 41.7078 -76.3778 20° North 279 321 12,600 -1,000 Descending New York Center
Wed 11:23:40 PM 41.7908 -76.3347 21° North 279 321 11,100 -1,400 Descending New York Center
Wed 11:24:40 PM 41.8636 -76.2964 21° North 285 328 9,800 -1,050 Descending New York Center
Wed 11:25:40 PM 41.9381 -76.2581 21° North 280 322 9,000 -400 Descending New York Center
Wed 11:26:40 PM 42.0000 -76.2242 22° Northeast 275 316 9,000 -850 Level New York Center
Wed 11:27:40 PM 42.0792 -76.1775 24° Northeast 275 316 7,300 -1,800 Descending New York Center
Wed 11:28:40 PM 42.1433 -76.1408 23° Northeast 267 307 5,400 -1,750 Descending New York Center
Wed 11:29:40 PM 42.1986 -76.1144 19° North 239 275 3,800 -1,150 Descending New York Center
Wed 11:30:40 PM 42.2297 -76.0694 47° Northeast 172 198 3,100 -600 Descending New York Center
Wed 11:31:40 PM 42.2464 -76.0258 63° Northeast 153 176 2,600 -550 Descending New York Center
Wed 11:32:40 PM 42.2331 -75.9997 125° Southeast 104 120 2,000 5,200 Descending New York Center
Wed 11:33:40 PM 42.2475 -75.9531 67° East 104 120 13,000 5,500 Climbing New York Center
Wed 11:34:40 PM 42.2556 -75.9117 75° East 104 120 13,000  Level New York Center
Wed 11:35:40 PM 42.2614 -75.8703 79° East 104 120 13,000  Level New York Center
Wed 11:36:40 PM 42.2669 -75.8369 77° East 104 120 13,000  Level New York Center
Wed 11:37:40 PM 42.2669 -75.8369 323° Northwest 104 120 13,000  Level New York Center

Login

Don't have an account? Register now (free) for customized features, flight alerts, and more!